NKS1020 KLAX-KLAS
Flight info
| Callsign | NKS1020 |
|---|---|
| Flight time | N/A |
| Altitude | 25000 |
| Route | ORCKA5 MISEN RNDRZ4 |
| Aircraft | A321/M-SDE3FGHIRWY/LB1 |
Departure
| Time | N/A |
|---|---|
| Airport | Los Angeles International Airport (KLAX) |
Arrival
| Time | 2026-05-04 03:26 |
|---|---|
| Airport | Harry Reid International Airport (KLAS) |
| Time | Latitude | Longitude | Altitude | Speed | Heading |
|---|---|---|---|---|---|
| 2026-05-04 03:09 | 35.46880 | -115.91054 | 18009 ft | 399 kts | 48° |
| 2026-05-04 03:09 | 35.48712 | -115.88527 | 17719 ft | 390 kts | 49° |
| 2026-05-04 03:09 | 35.50494 | -115.86064 | 17380 ft | 384 kts | 49° |
| 2026-05-04 03:09 | 35.52253 | -115.83629 | 16964 ft | 379 kts | 49° |
| 2026-05-04 03:10 | 35.53994 | -115.81215 | 16555 ft | 375 kts | 49° |
| 2026-05-04 03:10 | 35.55716 | -115.78853 | 16165 ft | 378 kts | 49° |
| 2026-05-04 03:10 | 35.57455 | -115.76474 | 16038 ft | 368 kts | 50° |
| 2026-05-04 03:10 | 35.59112 | -115.74165 | 15997 ft | 354 kts | 50° |
| 2026-05-04 03:11 | 35.60725 | -115.71928 | 15794 ft | 345 kts | 49° |
| 2026-05-04 03:11 | 35.62325 | -115.69752 | 15696 ft | 343 kts | 49° |
| 2026-05-04 03:11 | 35.63935 | -115.67583 | 15529 ft | 343 kts | 49° |
| 2026-05-04 03:11 | 35.65541 | -115.65430 | 15357 ft | 341 kts | 49° |
| 2026-05-04 03:12 | 35.67140 | -115.63282 | 15182 ft | 339 kts | 50° |
| 2026-05-04 03:12 | 35.68722 | -115.61147 | 15020 ft | 337 kts | 50° |
| 2026-05-04 03:12 | 35.70298 | -115.59015 | 14851 ft | 335 kts | 50° |
| 2026-05-04 03:12 | 35.71866 | -115.56898 | 14679 ft | 334 kts | 48° |
| 2026-05-04 03:13 | 35.73635 | -115.55050 | 14513 ft | 335 kts | 35° |
| 2026-05-04 03:13 | 35.75646 | -115.53604 | 14342 ft | 334 kts | 31° |
| 2026-05-04 03:13 | 35.77674 | -115.52199 | 14174 ft | 334 kts | 31° |
| 2026-05-04 03:13 | 35.79687 | -115.50791 | 14002 ft | 332 kts | 31° |
| 2026-05-04 03:14 | 35.81694 | -115.49380 | 13837 ft | 331 kts | 32° |
| 2026-05-04 03:14 | 35.83688 | -115.47979 | 13651 ft | 330 kts | 31° |
| 2026-05-04 03:14 | 35.85684 | -115.46573 | 13478 ft | 329 kts | 31° |
| 2026-05-04 03:14 | 35.87678 | -115.45170 | 13310 ft | 329 kts | 31° |
| 2026-05-04 03:15 | 35.89660 | -115.43776 | 13142 ft | 328 kts | 32° |
| 2026-05-04 03:15 | 35.91030 | -115.42814 | 13033 ft | 328 kts | 31° |
| 2026-05-04 03:15 | 35.92784 | -115.41583 | 12650 ft | 329 kts | 31° |
| 2026-05-04 03:15 | 35.94775 | -115.40194 | 12272 ft | 327 kts | 31° |
| 2026-05-04 03:16 | 35.96747 | -115.38818 | 11889 ft | 325 kts | 31° |
| 2026-05-04 03:16 | 35.98655 | -115.37348 | 11512 ft | 322 kts | 42° |
| 2026-05-04 03:16 | 36.00151 | -115.35331 | 11150 ft | 317 kts | 59° |
| 2026-05-04 03:16 | 36.01068 | -115.32906 | 10832 ft | 308 kts | 79° |
| 2026-05-04 03:17 | 36.01369 | -115.30324 | 10587 ft | 301 kts | 95° |
| 2026-05-04 03:17 | 36.01253 | -115.27762 | 10330 ft | 299 kts | 98° |
| 2026-05-04 03:17 | 36.01121 | -115.25197 | 10066 ft | 299 kts | 97° |
| 2026-05-04 03:17 | 36.00994 | -115.22640 | 9805 ft | 298 kts | 98° |
| 2026-05-04 03:18 | 36.00870 | -115.20124 | 9532 ft | 298 kts | 98° |
| 2026-05-04 03:18 | 36.00744 | -115.17575 | 9394 ft | 288 kts | 98° |
| 2026-05-04 03:18 | 36.00626 | -115.15168 | 9273 ft | 274 kts | 98° |
| 2026-05-04 03:18 | 36.00515 | -115.12872 | 9184 ft | 261 kts | 98° |
| 2026-05-04 03:19 | 36.00406 | -115.10648 | 9044 ft | 258 kts | 98° |
| 2026-05-04 03:19 | 36.00293 | -115.08434 | 8804 ft | 257 kts | 98° |
| 2026-05-04 03:19 | 36.00178 | -115.06239 | 8563 ft | 256 kts | 99° |
| 2026-05-04 03:19 | 36.00064 | -115.04048 | 8333 ft | 256 kts | 98° |
| 2026-05-04 03:20 | 35.99950 | -115.01859 | 8101 ft | 254 kts | 98° |
| 2026-05-04 03:20 | 35.99873 | -114.99680 | 7800 ft | 255 kts | 97° |
| 2026-05-04 03:20 | 35.99852 | -114.97509 | 7453 ft | 252 kts | 96° |
| 2026-05-04 03:20 | 35.99850 | -114.95351 | 7149 ft | 249 kts | 95° |
| 2026-05-04 03:21 | 36.00039 | -114.93212 | 6810 ft | 257 kts | 72° |
| 2026-05-04 03:21 | 36.01081 | -114.91426 | 6504 ft | 259 kts | 41° |
| 2026-05-04 03:21 | 36.02583 | -114.90333 | 6186 ft | 244 kts | 22° |
| 2026-05-04 03:21 | 36.04176 | -114.89853 | 5829 ft | 228 kts | 1° |
| 2026-05-04 03:22 | 36.05689 | -114.89995 | 5609 ft | 210 kts | 342° |
| 2026-05-04 03:22 | 36.06913 | -114.90798 | 5298 ft | 191 kts | 299° |
| 2026-05-04 03:22 | 36.07264 | -114.92205 | 5127 ft | 166 kts | 262° |
| 2026-05-04 03:22 | 36.07312 | -114.93618 | 4932 ft | 167 kts | 263° |
| 2026-05-04 03:23 | 36.07344 | -114.94998 | 4730 ft | 156 kts | 261° |
| 2026-05-04 03:23 | 36.07356 | -114.96308 | 4534 ft | 150 kts | 261° |
| 2026-05-04 03:23 | 36.07360 | -114.97596 | 4347 ft | 150 kts | 261° |
| 2026-05-04 03:23 | 36.07362 | -114.98877 | 4154 ft | 148 kts | 260° |
| 2026-05-04 03:24 | 36.07364 | -115.00150 | 3971 ft | 147 kts | 260° |
| 2026-05-04 03:24 | 36.07365 | -115.01421 | 3795 ft | 148 kts | 265° |
| 2026-05-04 03:24 | 36.07365 | -115.02693 | 3599 ft | 148 kts | 266° |
| 2026-05-04 03:24 | 36.07366 | -115.03966 | 3415 ft | 148 kts | 266° |
| 2026-05-04 03:25 | 36.07366 | -115.05242 | 3235 ft | 149 kts | 266° |
| 2026-05-04 03:25 | 36.07366 | -115.06517 | 3071 ft | 148 kts | 265° |
| 2026-05-04 03:25 | 36.07366 | -115.07819 | 2862 ft | 151 kts | 265° |
| 2026-05-04 03:25 | 36.07366 | -115.09117 | 2675 ft | 151 kts | 264° |
| 2026-05-04 03:26 | 36.07366 | -115.10389 | 2474 ft | 147 kts | 263° |
| 2026-05-04 03:26 | 36.07366 | -115.11653 | 2267 ft | 147 kts | 261° |
| 2026-05-04 03:26 | 36.07365 | -115.12928 | 2074 ft | 148 kts | 262° |
| 2026-05-04 03:26 | 36.07350 | -115.13807 | 2075 ft | 44 kts | 271° |
| 2026-05-04 03:27 | 36.07360 | -115.14157 | 2085 ft | 39 kts | 272° |
| 2026-05-04 03:27 | 36.07410 | -115.14452 | 2091 ft | 30 kts | 294° |
| 2026-05-04 03:27 | 36.07490 | -115.14622 | 2096 ft | 17 kts | 308° |
| 2026-05-04 03:27 | 36.07535 | -115.14651 | 2099 ft | 4 kts | 346° |
| 2026-05-04 03:28 | 36.07578 | -115.14655 | 2101 ft | 9 kts | 359° |
| 2026-05-04 03:28 | 36.07638 | -115.14655 | 2102 ft | 9 kts | 0° |
| 2026-05-04 03:28 | 36.07713 | -115.14654 | 2099 ft | 13 kts | 359° |
| 2026-05-04 03:28 | 36.07802 | -115.14710 | 2097 ft | 16 kts | 327° |
| 2026-05-04 03:29 | 36.07859 | -115.14818 | 2098 ft | 15 kts | 282° |
| 2026-05-04 03:29 | 36.07867 | -115.14949 | 2098 ft | 15 kts | 275° |
| 2026-05-04 03:29 | 36.07876 | -115.15082 | 2098 ft | 16 kts | 275° |
| 2026-05-04 03:29 | 36.07877 | -115.15217 | 2099 ft | 16 kts | 269° |
| 2026-05-04 03:30 | 36.07903 | -115.15342 | 2099 ft | 16 kts | 316° |
| 2026-05-04 03:30 | 36.08007 | -115.15409 | 2098 ft | 18 kts | 334° |
| 2026-05-04 03:30 | 36.08120 | -115.15473 | 2098 ft | 18 kts | 336° |
| 2026-05-04 03:30 | 36.08238 | -115.15537 | 2099 ft | 19 kts | 330° |
| 2026-05-04 03:31 | 36.08343 | -115.15531 | 2099 ft | 17 kts | 57° |
| 2026-05-04 03:31 | 36.08381 | -115.15431 | 2097 ft | 12 kts | 66° |
| 2026-05-04 03:31 | 36.08402 | -115.15333 | 2097 ft | 12 kts | 103° |
| 2026-05-04 03:31 | 36.08370 | -115.15238 | 2097 ft | 12 kts | 112° |
| 2026-05-04 03:32 | 36.08363 | -115.15217 | 2097 ft | 0 kts | 112° |